Time;durP1;ratioP1;P1;durP2;ratioP2;P2;SDS_P1;SDS_P2;PMS_P1;PMS_P2;Temp;Humidity;BMP_temperature;BMP_pressure;BME280_temperature;BME280_humidity;BME280_pressure;Samples;Min_cycle;Max_cycle;Signal;HPM_P1;HPM_P2
2020/12/09 00:00:39;;;;;;;27.05;18.52;;;;;;;19.45;54.89;100247.16;2296804;77;51582;-75
2020/12/09 00:03:41;;;;;;;27.90;18.35;;;;;;;19.46;54.77;100266.25;2296892;77;51486;-76
2020/12/09 00:06:44;;;;;;;31.55;18.55;;;;;;;19.46;54.73;100274.30;2296850;77;50498;-76
2020/12/09 00:09:46;;;;;;;24.43;17.87;;;;;;;19.44;54.71;100265.61;2296728;77;50340;-76
2020/12/09 00:12:48;;;;;;;26.40;17.50;;;;;;;19.44;54.73;100270.45;2296973;77;50665;-77
2020/12/09 00:15:51;;;;;;;25.72;18.12;;;;;;;19.43;54.66;100261.28;2273165;77;53448;-77
2020/12/09 00:18:53;;;;;;;28.02;18.30;;;;;;;19.42;54.72;100276.56;2297066;77;50361;-76
2020/12/09 00:21:55;;;;;;;25.97;17.77;;;;;;;19.40;54.77;100266.53;2297301;77;50369;-76
2020/12/09 00:24:57;;;;;;;26.77;17.87;;;;;;;19.40;54.70;100275.92;2297430;77;50386;-76
2020/12/09 00:27:59;;;;;;;24.85;17.62;;;;;;;19.38;54.66;100277.14;2297798;77;50810;-76
2020/12/09 00:31:02;;;;;;;25.15;17.50;;;;;;;19.38;54.91;100277.14;2298875;77;50719;-76
2020/12/09 00:34:04;;;;;;;27.35;18.05;;;;;;;19.38;54.78;100277.14;2298391;77;51481;-76
2020/12/09 00:37:06;;;;;;;26.55;17.32;;;;;;;19.38;54.68;100277.97;2297609;77;51542;-76
2020/12/09 00:40:08;;;;;;;26.60;18.23;;;;;;;19.36;54.85;100270.63;2297449;77;50753;-76
2020/12/09 00:43:11;;;;;;;27.95;18.12;;;;;;;19.35;54.63;100260.41;2297355;77;50485;-76
2020/12/09 00:46:22;;;;;;;25.60;17.40;;;;;;;19.35;54.77;100259.59;2297402;77;50714;-76
2020/12/09 00:49:24;;;;;;;25.20;17.25;;;;;;;19.33;54.58;100271.02;2295600;77;50769;-77
2020/12/09 00:52:26;;;;;;;25.68;18.05;;;;;;;19.31;54.66;100273.06;2297500;77;51379;-77
2020/12/09 00:55:29;;;;;;;25.95;17.45;;;;;;;19.31;54.60;100267.19;2297458;77;50790;-76
2020/12/09 00:58:31;;;;;;;27.35;17.80;;;;;;;19.31;54.62;100284.62;2297332;77;51520;-76
2020/12/09 01:01:33;;;;;;;25.70;16.75;;;;;;;19.31;54.70;100279.25;2297320;77;51489;-76
2020/12/09 01:04:35;;;;;;;26.62;17.02;;;;;;;19.30;54.83;100276.78;2297297;77;50410;-75
2020/12/09 01:07:38;;;;;;;26.82;18.30;;;;;;;19.29;54.72;100285.84;2296899;77;51537;-74
2020/12/09 01:10:40;;;;;;;25.08;17.10;;;;;;;19.26;54.51;100276.33;2296942;77;51441;-77
2020/12/09 01:13:44;;;;;;;25.85;17.75;;;;;;;19.26;54.64;100270.14;2296812;77;51489;-79
2020/12/09 01:16:46;;;;;;;25.17;17.35;;;;;;;19.24;54.62;100275.73;2296579;77;50130;-76
2020/12/09 01:19:48;;;;;;;25.55;17.00;;;;;;;19.25;54.38;100278.71;2296860;77;51339;-76
2020/12/09 01:22:50;;;;;;;23.75;17.15;;;;;;;19.26;54.41;100280.87;2297003;77;50651;-77
2020/12/09 01:25:53;;;;;;;24.50;16.87;;;;;;;19.26;54.30;100277.67;2297044;77;51481;-76
2020/12/09 01:28:55;;;;;;;24.35;17.27;;;;;;;19.24;54.43;100292.30;2296999;77;50337;-76
2020/12/09 01:32:01;;;;;;;27.52;16.75;;;;;;;19.24;54.41;100292.30;2297176;77;50687;-77
2020/12/09 01:35:03;;;;;;;23.73;16.73;;;;;;;19.21;54.34;100293.53;2297043;77;51494;-76
2020/12/09 01:38:05;;;;;;;24.10;16.48;;;;;;;19.20;54.32;100282.49;2297076;77;50704;-76
2020/12/09 01:41:07;;;;;;;23.67;16.20;;;;;;;19.21;54.78;100277.95;2296948;77;51519;-77
2020/12/09 01:44:10;;;;;;;26.17;17.10;;;;;;;19.18;54.38;100279.17;2297036;77;51516;-76
2020/12/09 01:47:12;;;;;;;23.70;16.62;;;;;;;19.17;54.39;100280.20;2296976;76;50472;-76
2020/12/09 01:50:14;;;;;;;21.87;16.40;;;;;;;19.15;54.34;100272.87;2296941;77;50437;-77
2020/12/09 01:53:16;;;;;;;22.50;15.90;;;;;;;19.14;54.33;100271.22;2297254;77;50300;-77
2020/12/09 01:56:19;;;;;;;22.75;15.93;;;;;;;19.13;54.33;100263.66;2297060;77;50739;-77
2020/12/09 01:59:21;;;;;;;25.15;15.83;;;;;;;19.15;54.44;100268.84;2296860;77;50310;-75
2020/12/09 02:02:23;;;;;;;24.27;16.23;;;;;;;19.17;54.22;100279.39;2297005;77;50615;-76
2020/12/09 02:05:26;;;;;;;24.02;16.52;;;;;;;19.13;54.36;100262.84;2296925;77;50807;-76
2020/12/09 02:08:28;;;;;;;24.35;16.62;;;;;;;19.12;54.22;100257.17;2298246;77;51487;-77
2020/12/09 02:11:30;;;;;;;25.37;16.57;;;;;;;19.09;54.33;100261.08;2298281;77;51498;-77
2020/12/09 02:14:32;;;;;;;22.35;15.70;;;;;;;19.11;54.22;100267.56;2298390;77;51845;-77
2020/12/09 02:17:34;;;;;;;23.70;16.93;;;;;;;19.09;54.48;100269.12;2298393;77;50355;-76
2020/12/09 02:20:37;;;;;;;22.62;15.90;;;;;;;19.10;54.28;100271.28;2298134;77;50611;-76
2020/12/09 02:23:39;;;;;;;24.72;16.55;;;;;;;19.07;54.34;100267.14;2298367;77;51513;-76
2020/12/09 02:26:45;;;;;;;25.40;17.00;;;;;;;19.05;54.67;100272.38;2298256;77;51493;-77
2020/12/09 02:29:47;;;;;;;22.95;16.25;;;;;;;19.04;54.35;100270.73;2298181;77;50715;-77
2020/12/09 02:32:49;;;;;;;25.77;16.85;;;;;;;19.05;54.44;100261.13;2298272;77;51515;-76
2020/12/09 02:35:51;;;;;;;24.90;16.52;;;;;;;19.06;54.19;100259.28;2298210;77;51492;-77
2020/12/09 02:38:54;;;;;;;24.43;16.30;;;;;;;19.03;54.18;100259.16;2298344;77;50234;-77
2020/12/09 02:41:56;;;;;;;26.10;17.05;;;;;;;19.04;54.17;100260.02;2298294;77;50196;-76
2020/12/09 02:44:58;;;;;;;23.35;15.68;;;;;;;19.03;54.19;100256.47;2296921;77;50814;-76
2020/12/09 02:48:00;;;;;;;24.80;16.73;;;;;;;19.02;54.08;100252.66;2297319;76;50642;-76
2020/12/09 02:51:02;;;;;;;22.50;15.85;;;;;;;19.02;54.15;100254.01;2297120;77;50707;-77
2020/12/09 02:54:05;;;;;;;25.27;16.75;;;;;;;19.02;54.09;100253.48;2297156;77;50185;-76
2020/12/09 02:57:07;;;;;;;22.17;15.18;;;;;;;19.03;54.04;100262.36;2297089;77;50509;-77
2020/12/09 03:00:09;;;;;;;23.92;15.43;;;;;;;19.01;54.11;100257.69;2296455;77;51494;-76
2020/12/09 03:03:11;;;;;;;23.92;16.37;;;;;;;18.99;54.01;100260.59;2297089;77;51508;-77
2020/12/09 03:06:14;;;;;;;22.58;15.43;;;;;;;18.98;54.47;100260.77;2297117;77;51505;-77
2020/12/09 03:09:16;;;;;;;23.22;15.90;;;;;;;18.98;53.94;100258.09;2297096;77;51585;-77
2020/12/09 03:12:18;;;;;;;20.82;14.50;;;;;;;18.99;54.05;100250.38;2297126;77;50688;-77
2020/12/09 03:15:20;;;;;;;21.07;15.45;;;;;;;18.97;54.12;100253.77;2296949;77;50184;-77
2020/12/09 03:18:22;;;;;;;24.18;16.12;;;;;;;18.98;53.89;100252.73;2296942;77;50711;-76
2020/12/09 03:21:25;;;;;;;23.73;15.80;;;;;;;18.96;53.87;100251.60;2297151;77;50707;-76
2020/12/09 03:24:27;;;;;;;21.70;15.58;;;;;;;18.92;54.08;100235.05;2296707;77;52495;-76
2020/12/09 03:27:29;;;;;;;23.85;15.28;;;;;;;18.96;53.92;100238.68;2297187;77;50332;-77
2020/12/09 03:30:31;;;;;;;25.17;16.02;;;;;;;18.93;53.86;100235.39;2297175;77;50253;-76
2020/12/09 03:33:33;;;;;;;18.87;14.70;;;;;;;18.90;53.91;100235.76;2296679;77;51484;-76
2020/12/09 03:36:36;;;;;;;21.27;14.98;;;;;;;18.92;54.19;100225.67;2297233;77;51613;-77
2020/12/09 03:39:38;;;;;;;24.07;15.88;;;;;;;18.91;53.84;100236.09;2297579;77;51449;-78
2020/12/09 03:42:40;;;;;;;21.60;15.23;;;;;;;18.91;53.94;100238.77;2297593;77;50317;-77
2020/12/09 03:45:42;;;;;;;23.95;16.35;;;;;;;18.90;53.77;100255.86;2297909;77;50705;-77
2020/12/09 03:48:44;;;;;;;22.80;15.63;;;;;;;18.90;53.81;100258.55;2297736;76;50735;-78
2020/12/09 03:51:47;;;;;;;23.83;15.05;;;;;;;18.90;53.83;100265.25;2298247;77;50708;-78
2020/12/09 03:54:49;;;;;;;21.57;15.20;;;;;;;18.90;53.71;100284.53;2298424;77;50718;-77
2020/12/09 03:57:51;;;;;;;23.80;14.80;;;;;;;18.89;53.80;100278.86;2298477;77;50722;-78
2020/12/09 04:00:53;;;;;;;22.98;15.03;;;;;;;18.88;53.83;100273.16;2298042;77;51451;-78
2020/12/09 04:03:56;;;;;;;22.07;14.58;;;;;;;18.87;53.87;100275.55;2298112;77;51446;-78
2020/12/09 04:06:58;;;;;;;20.97;14.40;;;;;;;18.86;53.68;100278.74;2298050;77;50370;-78
2020/12/09 04:10:00;;;;;;;22.22;14.55;;;;;;;18.84;53.79;100265.22;2297882;77;50675;-78
2020/12/09 04:13:02;;;;;;;21.02;14.63;;;;;;;18.85;53.67;100263.66;2297995;77;50373;-78
2020/12/09 04:16:04;;;;;;;21.02;15.32;;;;;;;18.84;53.72;100256.66;2297878;77;52146;-77
2020/12/09 04:19:07;;;;;;;22.87;15.28;;;;;;;18.81;53.67;100254.89;2297833;77;51704;-77
2020/12/09 04:22:09;;;;;;;21.35;15.13;;;;;;;18.81;53.78;100258.39;2298106;77;51476;-77
2020/12/09 04:25:11;;;;;;;22.93;15.28;;;;;;;18.82;53.68;100265.91;2298125;77;50366;-77
2020/12/09 04:28:13;;;;;;;21.77;15.35;;;;;;;18.82;53.67;100276.12;2298497;77;50501;-78
2020/12/09 04:31:15;;;;;;;20.65;15.03;;;;;;;18.81;53.62;100264.27;2299064;77;51714;-78
2020/12/09 04:34:20;;;;;;;20.37;14.90;;;;;;;18.80;53.73;100256.71;2299006;77;50703;-78
2020/12/09 04:37:25;;;;;;;24.40;15.15;;;;;;;18.78;53.67;100270.84;2299005;77;50245;-78
2020/12/09 04:40:27;;;;;;;21.27;14.80;;;;;;;18.78;53.54;100278.03;2299058;77;22753;-78
2020/12/09 04:43:32;;;;;;;22.77;15.23;;;;;;;18.79;53.62;100273.83;2297467;77;50731;-76
2020/12/09 04:46:36;;;;;;;21.30;14.98;;;;;;;18.80;53.51;100269.29;2297200;77;50329;-77
2020/12/09 04:49:43;;;;;;;20.70;14.38;;;;;;;18.76;53.60;100274.22;2297219;76;50703;-77
2020/12/09 04:53:09;;;;;;;21.45;15.05;;;;;;;18.76;53.58;100272.88;2297373;77;51594;-77
2020/12/09 04:56:12;;;;;;;;;;;;;;;18.75;53.46;100276.56;2300020;77;50012;-77
2020/12/09 04:59:17;;;;;;;21.42;14.87;;;;;;;18.73;53.94;100287.98;2297201;77;52617;-77
2020/12/09 05:02:19;;;;;;;20.32;14.30;;;;;;;18.75;53.58;100295.81;2297565;77;51634;-77
2020/12/09 05:05:24;;;;;;;21.17;14.38;;;;;;;18.75;53.55;100286.44;2297780;77;50500;-77
2020/12/09 05:08:26;;;;;;;20.55;14.70;;;;;;;18.75;53.54;100293.13;2296220;77;51469;-78
2020/12/09 05:11:28;;;;;;;20.55;14.80;;;;;;;18.73;53.46;100294.69;2295354;77;50407;-77
2020/12/09 05:14:32;;;;;;;21.05;15.05;;;;;;;18.72;53.50;100281.77;2282125;77;51497;-77
2020/12/09 05:17:36;;;;;;;22.37;15.00;;;;;;;18.72;53.49;100288.98;2282008;78;50155;-77
2020/12/09 05:20:40;;;;;;;20.17;14.58;;;;;;;18.71;53.38;100281.98;2283247;78;50904;-77
2020/12/09 05:23:44;;;;;;;23.87;15.15;;;;;;;18.72;53.30;100286.30;2282930;78;50480;-76
2020/12/09 05:26:47;;;;;;;20.40;15.10;;;;;;;18.71;53.37;100285.48;2285522;77;51472;-77
2020/12/09 05:29:50;;;;;;;20.77;14.95;;;;;;;18.73;53.29;100292.00;2299361;77;52408;-77
2020/12/09 05:32:55;;;;;;;20.68;14.68;;;;;;;18.77;53.16;100291.95;2298512;77;50835;-76
2020/12/09 05:35:58;;;;;;;20.50;14.35;;;;;;;18.78;53.00;100299.47;2297496;77;50784;-77
2020/12/09 05:39:07;;;;;;;19.20;14.20;;;;;;;18.80;53.02;100291.56;2297296;77;50136;-77
2020/12/09 05:42:16;;;;;;;19.50;14.03;;;;;;;18.81;52.98;100293.23;2297097;77;51588;-78
2020/12/09 05:45:18;;;;;;;21.55;14.90;;;;;;;18.83;52.82;100299.72;2297586;77;51584;-76
2020/12/09 05:48:22;;;;;;;20.52;14.43;;;;;;;18.86;53.07;100298.02;2297468;76;51639;-76
2020/12/09 05:51:24;;;;;;;19.23;14.38;;;;;;;18.87;52.84;100319.26;2297879;77;50488;-78
2020/12/09 05:54:26;;;;;;;19.40;14.50;;;;;;;18.89;53.04;100316.39;2297981;77;50308;-77
2020/12/09 05:57:28;;;;;;;20.23;14.20;;;;;;;18.89;53.26;100306.49;2297900;77;52160;-78
2020/12/09 06:00:31;;;;;;;19.32;14.30;;;;;;;18.90;52.94;100305.46;2297862;77;50131;-77
2020/12/09 06:03:34;;;;;;;19.45;15.03;;;;;;;18.95;53.51;100301.38;2327483;76;50714;-76
2020/12/09 06:06:36;;;;;;;22.10;14.45;;;;;;;18.99;52.96;100301.33;2274253;77;50677;-77
2020/12/09 06:09:39;;;;;;;20.12;13.55;;;;;;;19.05;52.55;100303.22;2297396;77;51559;-76
2020/12/09 06:13:00;;;;;;;19.48;13.85;;;;;;;19.12;52.72;100306.27;2307835;76;51479;-75
2020/12/09 06:16:06;;;;;;;20.57;14.98;;;;;;;19.13;52.35;100310.59;2297743;77;51586;-76
2020/12/09 06:19:08;;;;;;;18.85;13.20;;;;;;;19.13;52.29;100294.50;2297262;77;50797;-75
2020/12/09 06:22:10;;;;;;;21.35;13.10;;;;;;;19.27;52.21;100291.94;2297454;77;51517;-77
2020/12/09 06:25:13;;;;;;;21.17;12.93;;;;;;;19.32;52.42;100301.57;2297347;77;50379;-76
2020/12/09 06:28:19;;;;;;;23.30;13.62;;;;;;;19.35;53.70;100308.70;2296947;77;50327;-77
2020/12/09 06:31:22;;;;;;;32.10;14.25;;;;;;;19.35;56.08;100313.24;2296976;75;51582;-77
2020/12/09 06:34:24;;;;;;;21.35;12.13;;;;;;;19.38;54.43;100319.55;2296877;77;50768;-78
2020/12/09 06:37:26;;;;;;;22.02;12.35;;;;;;;19.48;54.41;100316.52;2297147;77;51490;-79
2020/12/09 06:40:29;;;;;;;23.25;12.55;;;;;;;19.66;54.13;100320.86;2297257;77;51464;-78
2020/12/09 06:43:31;;;;;;;54.50;33.18;;;;;;;19.72;53.46;100327.31;2308748;76;50334;-77
2020/12/09 06:46:46;;;;;;;52.98;37.80;;;;;;;19.10;45.29;100338.33;2323111;76;51595;-77
2020/12/09 06:49:49;;;;;;;46.92;31.82;;;;;;;18.26;44.15;100331.72;2317120;76;50438;-77
2020/12/09 06:52:51;;;;;;;46.77;30.25;;;;;;;18.57;44.85;100331.09;2296761;77;50607;-77
2020/12/09 06:55:53;;;;;;;40.78;27.45;;;;;;;18.82;45.42;100329.73;2297166;77;51442;-77
2020/12/09 06:58:56;;;;;;;42.17;26.35;;;;;;;18.94;45.92;100323.34;2273555;77;50677;-77
2020/12/09 07:02:06;;;;;;;35.28;24.15;;;;;;;19.15;45.83;100329.19;2248368;77;52665;-78
2020/12/09 07:05:11;;;;;;;37.15;24.57;;;;;;;19.25;45.98;100343.61;2317069;75;50806;-77
2020/12/09 07:08:13;;;;;;;40.98;24.43;;;;;;;19.29;46.21;100339.49;2296630;77;51720;-78
2020/12/09 07:11:15;;;;;;;35.45;23.98;;;;;;;19.34;46.51;100343.77;2310002;76;51535;-78
2020/12/09 07:14:17;;;;;;;35.05;22.55;;;;;;;19.41;46.64;100344.64;2323283;76;52323;-77
2020/12/09 07:17:22;;;;;;;38.28;23.38;;;;;;;19.47;46.73;100355.09;2322761;76;50357;-74
2020/12/09 07:20:24;;;;;;;32.95;20.70;;;;;;;19.59;46.69;100349.52;2293636;76;51605;-74
2020/12/09 07:23:26;;;;;;;30.65;19.20;;;;;;;19.65;46.71;100356.80;2297951;77;51668;-74
2020/12/09 07:26:28;;;;;;;31.93;20.35;;;;;;;19.69;46.75;100357.25;2297359;77;51503;-74
2020/12/09 07:29:31;;;;;;;31.10;20.20;;;;;;;19.72;46.82;100356.84;2308288;76;50384;-74
2020/12/09 07:32:33;;;;;;;34.18;20.50;;;;;;;19.78;46.70;100362.27;2308781;76;50337;-74
2020/12/09 07:35:35;;;;;;;31.50;20.08;;;;;;;19.73;46.99;100372.77;2300132;76;50464;-74
2020/12/09 07:38:39;;;;;;;32.63;18.98;;;;;;;19.78;47.01;100377.03;2306655;76;50756;-74
2020/12/09 07:41:45;;;;;;;28.05;18.67;;;;;;;19.90;46.80;100373.78;2296469;76;51423;-74
2020/12/09 07:44:47;;;;;;;28.12;17.10;;;;;;;19.81;47.05;100377.15;2296948;77;50446;-74
2020/12/09 07:47:49;;;;;;;26.37;18.27;;;;;;;19.95;46.87;100372.67;2296640;77;52329;-73
2020/12/09 07:50:54;;;;;;;38.92;19.00;;;;;;;19.95;46.92;100373.49;2290204;76;50349;-73
2020/12/09 07:53:56;;;;;;;32.88;19.80;;;;;;;19.98;47.08;100368.23;2289104;77;51569;-74
2020/12/09 07:56:58;;;;;;;32.00;18.42;;;;;;;19.98;47.41;100367.72;2291990;76;50357;-74
2020/12/09 08:00:01;;;;;;;28.52;18.00;;;;;;;20.09;47.44;100360.98;2318361;76;50750;-74
2020/12/09 08:03:03;;;;;;;26.25;17.82;;;;;;;20.09;47.61;100362.31;2310840;76;50410;-74
2020/12/09 08:06:05;;;;;;;29.05;18.05;;;;;;;20.11;47.69;100375.01;2307577;76;50709;-74
2020/12/09 08:09:17;;;;;;;37.08;18.95;;;;;;;20.16;47.70;100369.05;2322436;76;51580;-74
2020/12/09 08:12:19;;;;;;;27.00;17.52;;;;;;;20.22;47.70;100367.74;2321048;76;50219;-75
2020/12/09 08:15:21;;;;;;;27.58;17.40;;;;;;;20.27;47.75;100372.52;2304541;76;50392;-74
2020/12/09 08:18:23;;;;;;;27.25;16.10;;;;;;;20.30;47.80;100365.91;2256976;77;51641;-74
2020/12/09 08:21:26;;;;;;;28.50;18.25;;;;;;;20.29;47.86;100363.72;2297191;76;52234;-75
2020/12/09 08:24:28;;;;;;;27.75;16.80;;;;;;;20.41;47.86;100374.20;2297210;77;52183;-74
2020/12/09 08:27:32;;;;;;;26.55;16.42;;;;;;;20.37;48.02;100370.77;2313211;76;51566;-74
2020/12/09 08:30:34;;;;;;;26.68;16.20;;;;;;;20.41;48.04;100376.07;2301524;75;51914;-74
2020/12/09 08:33:37;;;;;;;28.87;17.77;;;;;;;20.45;48.00;100375.99;2313625;76;50317;-74
2020/12/09 08:36:39;;;;;;;26.15;16.45;;;;;;;20.50;47.94;100390.14;2248829;76;52627;-75
2020/12/09 08:39:41;;;;;;;28.90;17.55;;;;;;;20.52;48.04;100394.81;2303275;75;51597;-74
2020/12/09 08:42:59;;;;;;;28.07;17.12;;;;;;;20.53;48.09;100392.45;2309690;75;51572;-74
2020/12/09 08:46:00;;;;;;;24.92;16.60;;;;;;;20.56;48.10;100398.80;2312987;76;22391;-73
2020/12/09 08:49:03;;;;;;;25.30;16.37;;;;;;;20.56;48.16;100389.39;2297134;76;50446;-76
2020/12/09 08:52:05;;;;;;;26.10;15.72;;;;;;;20.62;48.17;100400.14;2297060;76;51648;-74
2020/12/09 08:55:08;;;;;;;29.75;17.25;;;;;;;20.67;48.17;100400.88;2318635;76;50342;-74
2020/12/09 08:58:12;;;;;;;25.45;16.62;;;;;;;20.69;48.24;100398.00;2317978;76;50702;-73
2020/12/09 09:01:14;;;;;;;25.50;16.30;;;;;;;20.68;48.37;100401.22;2298771;77;50358;-73
2020/12/09 09:04:16;;;;;;;24.15;16.60;;;;;;;20.68;48.51;100399.87;2301246;76;50072;-74
2020/12/09 09:07:19;;;;;;;25.27;16.20;;;;;;;20.73;48.48;100407.30;2291184;77;50307;-74
2020/12/09 09:10:21;;;;;;;24.12;15.63;;;;;;;20.79;48.37;100409.20;2306391;77;50719;-73
2020/12/09 09:13:23;;;;;;;27.52;16.60;;;;;;;20.78;48.46;100408.38;2308854;77;51399;-73
2020/12/09 09:16:25;;;;;;;23.32;15.45;;;;;;;20.79;48.45;100407.33;2302124;77;52318;-74
2020/12/09 09:19:27;;;;;;;23.83;16.52;;;;;;;20.90;48.28;100405.90;2300140;75;50337;-74
2020/12/09 09:22:30;;;;;;;23.22;15.72;;;;;;;20.93;48.20;100404.66;2308271;76;50407;-74
2020/12/09 09:25:33;;;;;;;23.12;15.23;;;;;;;20.82;48.40;100400.20;2303291;76;50700;-74
2020/12/09 09:28:35;;;;;;;22.25;15.30;;;;;;;20.85;48.42;100405.68;2300560;76;51558;-74
2020/12/09 09:31:37;;;;;;;29.42;16.45;;;;;;;20.82;48.46;100403.41;2296952;77;50400;-75
2020/12/09 09:34:39;;;;;;;20.65;14.33;;;;;;;20.88;48.33;100416.03;2296446;77;50400;-74
2020/12/09 09:37:42;;;;;;;24.07;15.03;;;;;;;20.93;48.16;100420.28;2302118;77;50715;-74
2020/12/09 09:40:44;;;;;;;24.57;15.28;;;;;;;20.91;48.13;100422.86;2301834;75;52281;-75
2020/12/09 09:43:46;;;;;;;25.25;15.85;;;;;;;20.95;47.99;100426.81;2302107;75;51453;-75
2020/12/09 09:46:48;;;;;;;24.02;15.70;;;;;;;21.00;47.80;100424.34;2301925;77;50295;-75
2020/12/09 09:49:50;;;;;;;24.60;15.93;;;;;;;20.95;47.85;100423.59;2301867;75;50374;-76
2020/12/09 09:52:52;;;;;;;23.18;14.65;;;;;;;21.01;47.68;100419.25;2258939;78;51523;-75
2020/12/09 09:55:55;;;;;;;23.80;14.65;;;;;;;21.01;47.60;100434.05;2277402;77;51521;-75
2020/12/09 09:58:57;;;;;;;21.27;14.78;;;;;;;21.03;47.46;100430.64;2291626;77;50711;-74
2020/12/09 10:01:59;;;;;;;22.22;14.80;;;;;;;21.00;47.49;100422.47;2298660;76;50387;-76
2020/12/09 10:05:01;;;;;;;24.12;15.20;;;;;;;21.02;47.35;100427.13;2302120;76;50655;-75
2020/12/09 10:08:08;;;;;;;24.25;15.38;;;;;;;20.99;47.36;100430.23;2298280;76;51566;-76
2020/12/09 10:11:07;;;;;;;21.97;15.43;;;;;;;20.98;47.32;100428.56;2314021;76;23374;-74
2020/12/09 10:14:10;;;;;;;25.43;16.15;;;;;;;21.06;47.04;100427.02;2321513;76;50171;-74
2020/12/09 10:17:12;;;;;;;22.35;15.25;;;;;;;21.06;46.96;100424.33;2296651;77;50399;-75
2020/12/09 10:20:14;;;;;;;21.65;15.68;;;;;;;21.13;46.82;100432.42;2293153;77;50657;-75
2020/12/09 10:23:16;;;;;;;20.70;15.68;;;;;;;21.14;46.86;100429.20;2289131;77;51571;-75
2020/12/09 10:26:18;;;;;;;23.27;15.75;;;;;;;21.04;47.12;100420.19;2296609;77;51515;-74
2020/12/09 10:29:21;;;;;;;25.50;16.10;;;;;;;21.10;46.98;100420.73;2296557;77;50205;-75
2020/12/09 10:32:24;;;;;;;24.35;15.78;;;;;;;21.12;46.86;100419.16;2296768;77;50350;-75
2020/12/09 10:35:27;;;;;;;25.17;16.07;;;;;;;21.09;46.77;100419.05;2297882;77;52405;-76
2020/12/09 10:38:29;;;;;;;24.57;15.98;;;;;;;21.05;46.79;100426.72;2301961;77;50501;-76
2020/12/09 10:41:31;;;;;;;23.60;16.73;;;;;;;21.06;46.63;100425.67;2308467;76;50580;-74
2020/12/09 10:44:33;;;;;;;26.80;16.87;;;;;;;21.04;46.60;100426.91;2290521;76;50649;-75
2020/12/09 10:47:36;;;;;;;23.92;15.93;;;;;;;21.01;46.74;100424.11;2292075;77;50919;-73
2020/12/09 10:50:38;;;;;;;23.62;15.88;;;;;;;20.98;46.95;100413.77;2296887;77;51527;-74
2020/12/09 10:53:40;;;;;;;24.12;16.57;;;;;;;20.92;47.30;100417.29;2316394;76;51573;-74
2020/12/09 10:56:43;;;;;;;22.60;15.88;;;;;;;20.90;47.54;100411.80;2315626;76;51477;-75
2020/12/09 10:59:45;;;;;;;20.90;14.87;;;;;;;20.92;47.63;100417.29;2322762;76;51436;-75
2020/12/09 11:02:47;;;;;;;24.37;16.23;;;;;;;20.94;47.79;100421.13;2299227;76;51528;-75
2020/12/09 11:05:49;;;;;;;24.82;16.45;;;;;;;20.96;47.77;100425.77;2311619;76;50404;-75
2020/12/09 11:08:52;;;;;;;23.65;16.02;;;;;;;20.91;48.02;100418.33;2319573;76;50353;-75
2020/12/09 11:11:54;;;;;;;22.67;15.28;;;;;;;21.00;47.78;100421.64;2323293;76;50420;-75
2020/12/09 11:14:58;;;;;;;24.50;16.75;;;;;;;20.97;47.97;100420.20;2319696;76;50507;-75
2020/12/09 11:18:00;;;;;;;26.45;15.48;;;;;;;21.05;47.84;100420.52;2300689;76;51617;-77
2020/12/09 11:21:03;;;;;;;19.60;14.70;;;;;;;21.01;47.84;100421.42;2320992;76;51433;-76
2020/12/09 11:24:05;;;;;;;25.57;15.93;;;;;;;21.00;47.94;100414.92;2296785;77;51532;-76
2020/12/09 11:27:07;;;;;;;20.48;14.58;;;;;;;20.96;47.98;100418.55;2297134;77;51492;-75
2020/12/09 11:30:09;;;;;;;24.95;15.28;;;;;;;21.02;47.84;100422.28;2297051;77;50374;-75
2020/12/09 11:33:11;;;;;;;22.48;14.23;;;;;;;21.13;47.51;100412.77;2296912;77;50768;-75
2020/12/09 11:36:13;;;;;;;24.92;16.02;;;;;;;21.01;47.78;100414.70;2297037;77;51507;-77
2020/12/09 11:39:16;;;;;;;26.42;16.52;;;;;;;20.99;47.77;100418.14;2275773;77;51516;-76
2020/12/09 11:42:18;;;;;;;27.15;16.50;;;;;;;20.89;47.12;100420.39;2256997;78;50241;-76
2020/12/09 11:45:20;;;;;;;21.85;14.65;;;;;;;20.78;47.66;100407.52;2256951;78;50408;-75
2020/12/09 11:48:22;;;;;;;25.05;15.65;;;;;;;20.72;47.79;100411.86;2286886;76;50708;-76
2020/12/09 11:51:24;;;;;;;22.75;15.10;;;;;;;20.61;48.15;100409.25;2303249;76;50711;-76
2020/12/09 11:54:27;;;;;;;21.57;15.43;;;;;;;20.55;48.33;100389.05;2296813;77;51528;-76
2020/12/09 11:57:30;;;;;;;23.52;16.15;;;;;;;20.68;47.99;100392.30;2294740;77;52263;-76
2020/12/09 12:00:32;;;;;;;25.70;16.07;;;;;;;20.71;47.91;100393.27;2297062;76;51522;-75
2020/12/09 12:03:34;;;;;;;23.90;15.85;;;;;;;20.89;47.45;100390.81;2301970;77;50665;-74
2020/12/09 12:06:37;;;;;;;23.15;16.00;;;;;;;20.82;47.72;100388.09;2299941;75;50253;-73
2020/12/09 12:09:39;;;;;;;21.52;14.78;;;;;;;20.80;47.77;100378.58;2301085;77;50711;-73
2020/12/09 12:12:41;;;;;;;22.67;15.78;;;;;;;20.79;47.78;100390.38;2298724;75;51497;-74
2020/12/09 12:15:43;;;;;;;23.05;15.25;;;;;;;20.87;47.72;100391.52;2295874;77;51553;-74
2020/12/09 12:18:45;;;;;;;22.10;14.80;;;;;;;20.77;47.89;100391.09;2295695;77;50284;-74
2020/12/09 12:21:51;;;;;;;22.70;14.43;;;;;;;20.92;47.51;100388.23;2297658;76;50222;-74
2020/12/09 12:24:52;;;;;;;;;;;;;;;20.94;47.43;100392.89;2296151;77;50335;-74
2020/12/09 12:27:55;;;;;;;20.90;13.93;;;;;;;20.93;47.40;100389.34;2295170;77;50433;-74
2020/12/09 12:30:57;;;;;;;17.95;13.83;;;;;;;20.90;47.36;100387.59;2296613;77;50455;-74
2020/12/09 12:33:59;;;;;;;21.95;14.20;;;;;;;20.87;47.36;100396.91;2296822;77;51638;-73
2020/12/09 12:37:01;;;;;;;25.02;15.32;;;;;;;20.84;47.33;100387.38;2296957;77;51609;-74
2020/12/09 12:40:05;;;;;;;22.50;14.23;;;;;;;20.86;47.25;100396.60;2296811;77;50457;-74
2020/12/09 12:43:07;;;;;;;23.75;14.87;;;;;;;20.90;47.12;100396.48;2298085;77;50777;-74
2020/12/09 12:46:12;;;;;;;22.25;15.80;;;;;;;20.88;47.08;100407.47;2298170;77;51508;-74
2020/12/09 12:49:15;;;;;;;20.30;14.70;;;;;;;20.91;46.96;100407.58;2297134;77;51552;-74
2020/12/09 12:52:17;;;;;;;22.77;15.10;;;;;;;20.93;46.86;100411.39;2296861;77;51570;-74
2020/12/09 12:55:20;;;;;;;19.67;14.30;;;;;;;20.97;46.70;100406.75;2296955;77;50193;-74
2020/12/09 12:58:22;;;;;;;21.62;15.78;;;;;;;20.97;46.66;100405.92;2296350;77;50720;-74
2020/12/09 13:01:24;;;;;;;23.18;14.83;;;;;;;20.99;46.56;100407.38;2296710;77;51545;-74
2020/12/09 13:04:28;;;;;;;24.18;15.43;;;;;;;21.05;46.36;100403.85;2296775;77;52578;-74
2020/12/09 13:07:30;;;;;;;23.42;14.53;;;;;;;21.04;46.33;100412.12;2296965;77;50403;-74
2020/12/09 13:10:32;;;;;;;24.75;15.68;;;;;;;21.04;46.24;100408.94;2296803;77;50402;-74
2020/12/09 13:13:34;;;;;;;21.20;14.28;;;;;;;21.02;46.23;100408.30;2297310;77;50807;-74
2020/12/09 13:16:37;;;;;;;21.70;15.43;;;;;;;21.02;46.21;100416.37;2296682;77;50189;-75
2020/12/09 13:19:39;;;;;;;20.23;14.83;;;;;;;21.09;46.00;100414.53;2296611;77;50729;-74
2020/12/09 13:22:41;;;;;;;25.12;15.00;;;;;;;21.06;45.96;100420.30;2296839;77;51486;-74
2020/12/09 13:25:43;;;;;;;21.75;15.50;;;;;;;21.06;45.93;100416.26;2296870;77;51624;-74
2020/12/09 13:28:45;;;;;;;18.75;13.70;;;;;;;20.90;46.30;100419.34;2297279;77;50470;-74
2020/12/09 13:31:49;;;;;;;21.77;15.03;;;;;;;20.92;46.17;100418.63;2300213;77;50723;-75
2020/12/09 13:34:52;;;;;;;22.20;14.95;;;;;;;20.94;46.11;100420.61;2297647;77;51573;-75
2020/12/09 13:37:54;;;;;;;20.10;14.45;;;;;;;20.91;46.16;100425.55;2297197;77;50370;-76
2020/12/09 13:40:57;;;;;;;20.40;15.00;;;;;;;20.87;46.19;100423.27;2297324;77;51599;-75
2020/12/09 13:43:59;;;;;;;21.02;15.43;;;;;;;20.91;46.05;100427.75;2297295;77;50797;-75
2020/12/09 13:47:01;;;;;;;22.80;15.98;;;;;;;20.84;46.11;100423.69;2297429;77;51538;-73
2020/12/09 13:50:07;;;;;;;21.50;14.90;;;;;;;20.91;45.99;100433.62;2296974;77;51406;-74